Time;durP1;ratioP1;P1;durP2;ratioP2;P2;SDS_P1;SDS_P2;PMS_P1;PMS_P2;Temp;Humidity;BMP_temperature;BMP_pressure;BME280_temperature;BME280_humidity;BME280_pressure;Samples;Min_cycle;Max_cycle;Signal;HPM_P1;HPM_P2
2022/04/30 00:00:52;;;;;;;4.25;2.35;;;;;;;8.19;71.32;102031.72;5008702;28;20133;-82
2022/04/30 00:03:24;;;;;;;4.10;2.38;;;;;;;8.21;71.66;102030.91;5035275;28;20054;-82
2022/04/30 00:06:00;;;;;;;6.18;3.60;;;;;;;8.23;71.71;102036.16;5003762;28;20050;-83
2022/04/30 00:08:32;;;;;;;4.95;3.05;;;;;;;8.23;71.96;102023.97;5000217;28;20057;-82
2022/04/30 00:11:18;;;;;;;7.07;4.32;;;;;;;8.17;71.97;102026.44;5000334;28;20644;-82
2022/04/30 00:13:49;;;;;;;8.82;3.05;;;;;;;8.14;72.34;102036.81;5019805;28;20166;-84
2022/04/30 00:16:39;;;;;;;2.80;2.60;;;;;;;8.15;72.44;102027.25;5013795;28;20038;-82
2022/04/30 00:19:32;;;;;;;4.47;2.33;;;;;;;8.18;72.69;102019.53;5037568;28;20134;-83
2022/04/30 00:22:04;;;;;;;8.73;3.00;;;;;;;8.19;72.05;102022.16;5000224;28;20073;-83
2022/04/30 00:24:54;;;;;;;3.70;2.65;;;;;;;8.19;72.37;102029.13;5001116;28;20227;-83
2022/04/30 00:27:38;;;;;;;5.30;2.45;;;;;;;8.17;72.47;102022.97;5029411;28;20049;-83
2022/04/30 00:30:11;;;;;;;5.25;2.67;;;;;;;8.14;72.41;102021.16;5026642;28;20045;-82
2022/04/30 00:32:54;;;;;;;8.93;2.90;;;;;;;8.10;72.83;102020.22;5005596;28;20155;-82
2022/04/30 00:35:27;;;;;;;6.63;2.65;;;;;;;8.10;72.93;102016.72;4994100;28;20108;-82
2022/04/30 00:38:02;;;;;;;5.05;2.78;;;;;;;8.07;73.23;102017.53;4999466;28;20105;-83
2022/04/30 00:40:36;;;;;;;5.25;3.00;;;;;;;8.04;73.43;102021.78;5004038;28;20054;-82
2022/04/30 00:43:19;;;;;;;4.30;2.63;;;;;;;8.02;73.43;102020.91;4983943;28;20049;-83
2022/04/30 00:46:09;;;;;;;4.65;2.25;;;;;;;8.00;73.54;102023.44;4975174;28;20113;-81
2022/04/30 00:49:08;;;;;;;6.25;2.83;;;;;;;7.97;73.86;102020.78;4978750;28;20122;-82
2022/04/30 00:52:03;;;;;;;6.50;3.13;;;;;;;7.93;74.29;102021.56;4977268;28;20047;-83
2022/04/30 00:55:06;;;;;;;7.70;3.60;;;;;;;7.95;74.31;102015.53;4993320;28;20073;-84
2022/04/30 00:58:24;;;;;;;3.45;2.80;;;;;;;7.91;74.64;102018.00;4968749;28;20047;-83
2022/04/30 01:01:05;;;;;;;4.75;2.17;;;;;;;7.85;75.77;102018.75;4995086;28;20061;-82
2022/04/30 01:07:16;;;;;;;5.78;2.88;;;;;;;7.80;75.81;102012.56;4981479;28;20628;-82
2022/04/30 01:09:58;;;;;;;4.75;3.05;;;;;;;7.75;76.27;102009.81;4981626;28;20097;-83
2022/04/30 01:12:37;;;;;;;8.00;3.67;;;;;;;7.75;76.21;102014.16;4978237;28;20034;-83
2022/04/30 01:15:16;;;;;;;5.30;2.97;;;;;;;7.75;76.28;102009.81;4980755;28;20031;-83
2022/04/30 01:18:32;;;;;;;4.78;2.53;;;;;;;7.74;76.31;101999.34;4977246;28;20039;-84
2022/04/30 01:21:15;;;;;;;5.78;2.75;;;;;;;7.75;76.06;101999.38;4978169;28;20057;-83
2022/04/30 01:23:51;;;;;;;5.00;2.67;;;;;;;7.81;76.29;102009.09;4996532;28;20043;-82
2022/04/30 01:29:30;;;;;;;6.30;2.97;;;;;;;7.77;76.37;102000.31;4979099;28;20042;-82
2022/04/30 01:38:00;;;;;;;7.85;2.55;;;;;;;7.76;76.16;101998.56;4973425;28;20062;-83
2022/04/30 01:40:34;;;;;;;7.80;3.10;;;;;;;7.75;76.26;102001.13;4980992;28;20046;-83
2022/04/30 01:43:05;;;;;;;5.93;3.30;;;;;;;7.72;76.31;101995.84;4964380;28;20057;-83
2022/04/30 01:45:40;;;;;;;3.50;3.08;;;;;;;7.73;76.48;101995.88;4997531;28;20145;-83
2022/04/30 01:48:28;;;;;;;6.93;2.35;;;;;;;7.71;76.61;101981.91;5016374;28;20080;-83
2022/04/30 01:51:10;;;;;;;6.47;3.38;;;;;;;7.69;76.59;101981.00;5007749;28;20456;-83
2022/04/30 01:53:50;;;;;;;7.53;3.13;;;;;;;7.69;77.01;101978.41;4998928;28;20052;-82
2022/04/30 01:56:20;;;;;;;5.95;2.90;;;;;;;7.65;76.80;101978.28;4993152;28;20045;-83
2022/04/30 01:58:56;;;;;;;3.35;2.53;;;;;;;7.54;77.00;101975.44;5018174;28;20118;-82
2022/04/30 02:01:44;;;;;;;4.25;2.60;;;;;;;7.49;77.38;101975.28;5004678;28;20061;-82
2022/04/30 02:04:13;;;;;;;7.30;2.65;;;;;;;7.43;77.77;101970.81;5002276;28;20063;-82
2022/04/30 02:06:48;;;;;;;7.65;2.40;;;;;;;7.37;78.26;101972.41;4996837;28;20029;-83
2022/04/30 02:09:17;;;;;;;6.30;2.88;;;;;;;7.33;78.55;101971.44;5001138;28;20054;-82
2022/04/30 02:12:04;;;;;;;5.43;2.92;;;;;;;7.37;78.83;101973.25;5017500;28;20058;-82
2022/04/30 02:14:42;;;;;;;7.57;3.92;;;;;;;7.36;77.99;101965.41;5019936;28;20054;-81
2022/04/30 02:17:19;;;;;;;6.85;3.38;;;;;;;7.33;78.42;101962.75;4995889;28;20046;-83
2022/04/30 02:22:41;;;;;;;3.47;3.08;;;;;;;7.28;78.28;101960.88;5006855;28;20030;-83
2022/04/30 02:25:27;;;;;;;4.70;2.17;;;;;;;7.26;78.89;101961.69;5020484;28;20100;-83
2022/04/30 02:28:08;;;;;;;6.75;3.03;;;;;;;7.21;78.81;101951.16;5019144;28;20389;-82
2022/04/30 02:31:01;;;;;;;3.25;2.70;;;;;;;7.23;78.56;101948.59;5036851;28;20050;-81
2022/04/30 02:33:36;;;;;;;3.72;2.38;;;;;;;7.23;78.69;101951.19;5007868;28;22571;-84
2022/04/30 02:36:06;;;;;;;5.05;2.97;;;;;;;7.20;78.57;101945.91;5013723;28;20053;-83
2022/04/30 02:38:36;;;;;;;2.80;2.30;;;;;;;7.16;79.18;101944.94;5017334;28;20034;-82
2022/04/30 02:41:11;;;;;;;6.65;2.40;;;;;;;7.16;79.00;101944.03;5005363;28;20546;-81
2022/04/30 02:43:56;;;;;;;6.30;3.00;;;;;;;7.16;79.45;101936.22;5039666;28;20056;-82
2022/04/30 02:46:27;;;;;;;4.35;2.50;;;;;;;7.18;79.68;101931.97;4992367;28;20356;-83
2022/04/30 02:48:57;;;;;;;5.20;3.00;;;;;;;7.14;79.37;101928.38;5009211;28;20049;-83
2022/04/30 02:51:37;;;;;;;5.47;2.40;;;;;;;7.13;79.46;101931.81;5005385;28;20061;-83
2022/04/30 02:54:08;;;;;;;3.60;2.42;;;;;;;7.09;79.61;101928.28;4999319;28;20037;-82
2022/04/30 02:56:45;;;;;;;5.10;2.60;;;;;;;7.05;79.93;101926.44;4998150;28;20042;-82
2022/04/30 03:02:12;;;;;;;8.95;2.90;;;;;;;7.02;80.21;101922.88;5040459;28;20264;-84
2022/04/30 03:04:42;;;;;;;;;;;;;;;7.02;81.37;101922.88;5024711;28;20042;-82
2022/04/30 03:07:16;;;;;;;6.75;2.28;;;;;;;6.99;80.88;101914.97;5012935;28;20071;-83
2022/04/30 03:09:54;;;;;;;6.32;3.42;;;;;;;6.99;80.88;101920.19;5006449;28;20062;-83
2022/04/30 03:12:32;;;;;;;6.03;2.97;;;;;;;7.01;80.70;101924.59;5015641;28;20061;-83
2022/04/30 03:23:44;;;;;;;5.15;2.78;;;;;;;7.14;80.64;101915.38;5017162;28;20045;-83
2022/04/30 03:29:24;;;;;;;7.28;3.83;;;;;;;7.19;81.00;101903.34;5022674;28;20046;-83
2022/04/30 03:31:52;;;;;;;;;;;;;;;7.21;81.28;101903.38;5040662;28;20030;-81
2022/04/30 03:34:32;;;;;;;6.10;2.58;;;;;;;7.21;80.52;101898.16;5005358;28;19969;-82
2022/04/30 03:37:03;;;;;;;3.47;2.25;;;;;;;7.23;80.50;101899.97;5012618;28;20050;-83
2022/04/30 03:39:37;;;;;;;5.60;2.83;;;;;;;7.28;80.62;101900.09;5020821;28;20034;-81
2022/04/30 03:42:21;;;;;;;7.10;2.75;;;;;;;7.29;80.28;101896.66;4987658;28;20046;-83
2022/04/30 03:44:57;;;;;;;6.13;3.47;;;;;;;7.23;80.68;101897.38;5018970;28;20042;-83
2022/04/30 03:47:32;;;;;;;6.25;3.05;;;;;;;7.22;80.78;101899.94;4997418;28;20045;-83
2022/04/30 03:50:09;;;;;;;7.95;2.67;;;;;;;7.16;81.22;101903.28;4992755;28;20127;-83
2022/04/30 03:52:48;;;;;;;13.80;3.70;;;;;;;7.16;81.41;101907.59;5005107;28;20114;-82
2022/04/30 03:55:22;;;;;;;18.38;5.20;;;;;;;7.14;81.41;101901.47;4998913;28;20061;-83
2022/04/30 03:58:00;;;;;;;3.95;2.55;;;;;;;7.16;81.90;101910.19;5020696;28;20046;-83
2022/04/30 04:00:40;;;;;;;6.03;3.17;;;;;;;7.18;81.71;101912.00;5008081;28;20109;-83
2022/04/30 04:03:19;;;;;;;6.18;2.50;;;;;;;7.14;81.99;101907.56;5019210;28;20098;-83
2022/04/30 04:06:24;;;;;;;4.80;3.15;;;;;;;7.10;82.28;101906.63;4989094;28;20076;-83
2022/04/30 04:09:02;;;;;;;5.57;3.30;;;;;;;7.10;82.28;101906.63;5019777;28;20065;-83
2022/04/30 04:11:48;;;;;;;5.35;3.05;;;;;;;7.10;81.98;101906.63;5019566;28;20050;-84
2022/04/30 04:22:54;;;;;;;5.90;2.90;;;;;;;7.07;82.59;101905.66;4996305;28;20078;-82
2022/04/30 04:28:33;;;;;;;5.78;3.65;;;;;;;7.03;83.02;101909.91;5024157;28;20033;-83
2022/04/30 04:31:05;;;;;;;6.07;3.22;;;;;;;7.02;83.14;101913.34;5009969;28;20046;-83
2022/04/30 04:33:44;;;;;;;11.95;3.60;;;;;;;7.08;82.98;101915.25;4999490;28;20042;-82
2022/04/30 04:36:19;;;;;;;6.00;3.10;;;;;;;7.10;82.77;101916.13;5003448;28;20033;-83
2022/04/30 04:38:49;;;;;;;3.83;3.50;;;;;;;7.09;82.82;101919.56;5006658;28;20109;-83
2022/04/30 04:41:17;;;;;;;7.72;3.17;;;;;;;7.09;82.94;101914.38;5010807;28;20037;-83
2022/04/30 04:43:57;;;;;;;9.70;3.30;;;;;;;7.16;83.01;101923.22;5013339;28;20283;-83
2022/04/30 04:46:43;;;;;;;5.57;3.30;;;;;;;7.19;83.11;101921.56;5023807;28;20053;-83
2022/04/30 04:49:18;;;;;;;9.50;3.38;;;;;;;7.19;83.03;101921.56;5019507;28;20101;-83
2022/04/30 04:52:01;;;;;;;11.85;3.72;;;;;;;7.18;83.45;101922.41;5022697;28;20045;-83
2022/04/30 04:54:39;;;;;;;9.07;3.78;;;;;;;7.17;83.57;101927.59;5004955;28;20049;-82
2022/04/30 04:57:12;;;;;;;10.07;4.20;;;;;;;7.16;84.00;101931.03;5003367;28;20027;-84
2022/04/30 04:59:57;;;;;;;6.40;3.42;;;;;;;7.20;83.64;101930.28;5007739;28;20037;-83
2022/04/30 05:02:30;;;;;;;8.02;3.75;;;;;;;7.23;83.55;101933.84;5004070;28;20098;-82
2022/04/30 05:05:20;;;;;;;3.75;3.17;;;;;;;7.31;83.44;101940.97;4989832;28;20497;-83
2022/04/30 05:08:11;;;;;;;11.50;3.78;;;;;;;7.38;82.79;101932.44;5007691;28;20096;-81
2022/04/30 05:10:45;;;;;;;5.28;3.50;;;;;;;7.41;82.60;101943.84;5020506;28;20097;-83
2022/04/30 05:13:33;;;;;;;7.07;3.85;;;;;;;7.50;82.27;101939.72;5008707;28;20045;-83
2022/04/30 05:18:55;;;;;;;7.63;3.75;;;;;;;7.56;81.83;101943.34;5023323;28;20126;-83
2022/04/30 05:21:34;;;;;;;6.88;3.22;;;;;;;7.57;81.74;101942.50;5015775;28;20133;-83
2022/04/30 05:30:02;;;;;;;6.10;3.63;;;;;;;7.59;81.07;101937.34;5025649;28;20542;-82
2022/04/30 05:32:43;;;;;;;8.23;4.47;;;;;;;7.60;81.07;101941.66;5003439;28;20403;-82
2022/04/30 05:35:46;;;;;;;7.25;4.30;;;;;;;7.61;81.13;101938.22;5007418;28;20047;-82
2022/04/30 05:38:21;;;;;;;10.43;4.40;;;;;;;7.64;81.07;101946.16;5035475;28;20429;-82
2022/04/30 05:40:56;;;;;;;9.48;4.20;;;;;;;7.62;80.96;101940.00;5002419;28;20069;-83
2022/04/30 05:43:32;;;;;;;6.07;4.65;;;;;;;7.64;80.78;101940.03;5009659;28;20363;-85
2022/04/30 05:45:59;;;;;;;11.10;3.72;;;;;;;7.64;81.66;101940.94;4994592;28;20145;-86
2022/04/30 05:48:26;;;;;;;8.63;4.53;;;;;;;7.65;81.28;101937.44;5000397;28;20140;-84
2022/04/30 05:50:53;;;;;;;7.63;4.55;;;;;;;7.71;81.20;101939.34;5001811;28;20053;-83
2022/04/30 05:53:21;;;;;;;8.27;4.57;;;;;;;7.75;81.42;101941.16;4997340;28;20140;-84
2022/04/30 05:55:47;;;;;;;4.70;3.92;;;;;;;7.80;81.62;101946.50;4982009;28;20861;-83
2022/04/30 05:58:14;;;;;;;11.10;6.00;;;;;;;7.85;81.59;101940.53;5005485;28;20590;-78
2022/04/30 06:00:40;;;;;;;6.20;4.13;;;;;;;7.87;81.50;101945.78;5019494;28;20140;-83
2022/04/30 06:03:07;;;;;;;6.20;4.20;;;;;;;7.85;81.48;101945.75;4987014;28;20441;-82
2022/04/30 06:05:34;;;;;;;9.60;3.85;;;;;;;7.85;81.28;101948.38;4986874;28;20072;-82
2022/04/30 06:08:00;;;;;;;6.40;4.05;;;;;;;7.89;81.53;101952.81;4997925;28;20050;-85
2022/04/30 06:10:27;;;;;;;9.88;4.57;;;;;;;7.92;82.20;101942.44;5003070;28;20042;-82
2022/04/30 06:12:54;;;;;;;9.98;4.57;;;;;;;8.00;82.33;101946.94;4988073;28;20045;-83
2022/04/30 06:15:28;;;;;;;9.60;4.63;;;;;;;8.04;81.65;101940.94;5005370;28;20045;-83
2022/04/30 06:18:00;;;;;;;9.38;4.50;;;;;;;8.11;82.23;101943.72;5009590;28;20050;-82
2022/04/30 06:20:38;;;;;;;10.63;4.78;;;;;;;8.17;81.93;101950.81;5005618;28;20053;-83
2022/04/30 06:23:07;;;;;;;7.13;5.28;;;;;;;8.19;82.34;101946.50;5018816;28;20151;-83
2022/04/30 06:25:49;;;;;;;6.68;3.75;;;;;;;8.24;82.53;101947.50;5022379;28;20106;-84
2022/04/30 06:28:55;;;;;;;9.48;3.70;;;;;;;8.27;82.93;101944.06;5019251;28;20061;-83
2022/04/30 06:31:28;;;;;;;9.27;4.55;;;;;;;8.24;83.47;101944.00;5023140;28;20136;-81
2022/04/30 06:33:57;;;;;;;9.10;4.60;;;;;;;8.22;84.00;101948.31;5007722;28;20050;-80
2022/04/30 06:36:28;;;;;;;7.82;4.40;;;;;;;8.20;83.90;101944.78;5010342;28;20104;-84
2022/04/30 06:39:12;;;;;;;8.70;4.80;;;;;;;8.20;84.08;101952.59;5008986;28;20102;-82
2022/04/30 06:41:44;;;;;;;8.38;4.22;;;;;;;8.22;84.12;101945.69;5029221;28;20068;-83
2022/04/30 06:44:13;;;;;;;11.15;5.18;;;;;;;8.28;84.25;101956.28;5009354;28;20046;-82
2022/04/30 06:46:53;;;;;;;12.25;4.88;;;;;;;8.33;83.77;101953.75;5010316;28;20093;-81
2022/04/30 06:49:36;;;;;;;10.05;4.00;;;;;;;8.40;84.01;101953.03;5013727;28;20109;-82
2022/04/30 06:52:09;;;;;;;8.60;3.75;;;;;;;8.43;84.23;101946.16;5042743;28;20069;-83
2022/04/30 06:57:33;;;;;;;11.63;4.35;;;;;;;8.27;84.56;101947.53;5031054;28;20048;-84
2022/04/30 07:02:59;;;;;;;8.50;4.50;;;;;;;8.15;85.84;101947.28;5015392;28;20045;-83
2022/04/30 07:05:32;;;;;;;7.65;4.95;;;;;;;8.18;86.25;101954.31;5023079;28;20041;-82
2022/04/30 07:08:08;;;;;;;7.95;4.28;;;;;;;8.17;86.62;101948.19;5016940;28;20056;-83
2022/04/30 07:11:11;;;;;;;10.90;5.28;;;;;;;8.16;86.27;101941.25;5030360;28;20042;-82
2022/04/30 07:13:43;;;;;;;12.07;6.03;;;;;;;8.14;87.28;101942.91;5026362;28;20046;-84
2022/04/30 07:16:16;;;;;;;9.25;5.30;;;;;;;8.16;87.11;101942.94;5024647;28;21156;-82
2022/04/30 07:19:09;;;;;;;6.97;4.53;;;;;;;8.14;88.23;101936.84;5027628;28;20281;-83
2022/04/30 07:25:09;;;;;;;10.05;5.38;;;;;;;8.19;89.14;101933.47;5032636;28;20054;-84
2022/04/30 07:30:54;;;;;;;10.48;5.60;;;;;;;8.13;91.06;101941.16;5012539;28;20066;-83
2022/04/30 07:33:43;;;;;;;13.48;5.88;;;;;;;8.10;90.85;101933.28;5010407;28;20089;-83
2022/04/30 07:36:13;;;;;;;13.68;6.25;;;;;;;8.05;91.65;101927.94;4997003;28;20152;-82
2022/04/30 07:38:47;;;;;;;10.00;5.35;;;;;;;7.99;92.58;101921.72;5029878;28;20124;-83
2022/04/30 07:41:25;;;;;;;11.13;5.23;;;;;;;7.90;93.19;101923.28;5009619;28;20042;-82
2022/04/30 07:44:05;;;;;;;7.55;4.88;;;;;;;7.84;93.66;101917.06;5027064;28;20415;-83
2022/04/30 07:46:40;;;;;;;15.45;6.47;;;;;;;7.78;94.92;101922.97;5026402;28;20092;-84
2022/04/30 07:49:07;;;;;;;12.85;5.38;;;;;;;7.78;95.71;101917.78;5006382;28;20041;-84
2022/04/30 07:51:53;;;;;;;12.18;6.13;;;;;;;7.76;96.54;101922.94;5006114;28;20306;-84
2022/04/30 07:54:24;;;;;;;11.07;5.60;;;;;;;7.74;96.67;101924.66;5026756;28;20054;-82
2022/04/30 07:57:04;;;;;;;8.60;6.50;;;;;;;7.74;96.68;101922.06;5020299;28;20046;-84
2022/04/30 07:59:36;;;;;;;9.38;5.60;;;;;;;7.76;96.09;101925.56;5044905;28;20042;-82
2022/04/30 08:02:15;;;;;;;10.48;5.95;;;;;;;7.81;96.50;101920.47;5024885;28;20046;-82
2022/04/30 08:04:42;;;;;;;14.77;5.80;;;;;;;7.89;97.05;101921.50;5021381;28;20056;-85
2022/04/30 08:07:09;;;;;;;10.60;5.82;;;;;;;7.99;95.94;101921.72;4987999;28;20045;-86
2022/04/30 08:09:36;;;;;;;14.18;6.00;;;;;;;8.08;95.95;101925.41;5005195;28;20369;-84
2022/04/30 08:12:03;;;;;;;9.40;6.00;;;;;;;8.20;95.08;101924.81;4999851;28;20793;-85
2022/04/30 08:14:39;;;;;;;6.35;5.75;;;;;;;8.32;94.56;101931.09;5007460;28;20066;-84
2022/04/30 08:17:20;;;;;;;9.35;6.10;;;;;;;8.50;93.94;101934.16;5010976;28;20081;-83
2022/04/30 08:22:39;;;;;;;7.68;4.93;;;;;;;8.95;91.46;101929.78;5008728;28;20036;-83
2022/04/30 08:25:15;;;;;;;8.02;4.88;;;;;;;9.16;88.75;101933.63;5020902;28;20367;-84
2022/04/30 08:28:04;;;;;;;11.20;5.65;;;;;;;9.39;88.24;101931.41;5009208;28;20072;-84
2022/04/30 08:30:39;;;;;;;9.85;5.75;;;;;;;9.64;86.24;101932.66;5011756;28;20052;-83
2022/04/30 08:33:16;;;;;;;7.72;5.32;;;;;;;9.96;83.86;101929.66;5039738;28;20057;-83
2022/04/30 08:36:11;;;;;;;8.93;5.53;;;;;;;10.21;81.77;101924.78;5011396;28;20026;-82
2022/04/30 08:38:51;;;;;;;14.27;5.30;;;;;;;10.42;80.64;101921.56;5024639;28;20025;-84
2022/04/30 08:41:23;;;;;;;9.35;4.65;;;;;;;10.57;80.17;101926.09;5030574;28;20097;-83
2022/04/30 08:44:16;;;;;;;7.85;5.20;;;;;;;10.76;78.30;101922.81;5027182;28;20044;-84
2022/04/30 08:47:53;;;;;;;;;;;;;;;;;;;;;
2022/04/30 08:50:41;;;;;;;8.40;5.20;;;;;;;11.43;74.54;101923.41;5009040;28;20069;-83
2022/04/30 09:04:24;;;;;;;6.95;4.50;;;;;;;12.71;67.86;101911.00;5025613;28;20029;-82
2022/04/30 09:21:55;;;;;;;7.20;5.03;;;;;;;12.66;65.58;101917.09;4975619;28;20034;-83
2022/04/30 09:24:55;;;;;;;8.48;5.03;;;;;;;12.54;64.04;101913.59;5008290;28;20042;-83
2022/04/30 09:41:24;;;;;;;7.03;4.35;;;;;;;12.68;63.30;101902.22;4968251;28;20054;-84
2022/04/30 09:44:22;;;;;;;8.93;3.70;;;;;;;12.56;62.06;101909.19;4980662;28;20134;-84
2022/04/30 09:56:52;;;;;;;14.15;8.93;;;;;;;12.12;63.62;101902.03;4983983;28;20096;-83
2022/04/30 09:59:24;;;;;;;8.82;6.40;;;;;;;12.04;63.96;101896.75;5019834;23;20055;-85
2022/04/30 10:01:54;;;;;;;5.60;4.18;;;;;;;11.94;63.83;101894.03;4951455;28;20119;-85
2022/04/30 10:04:20;;;;;;;6.25;3.60;;;;;;;11.89;63.86;101897.50;4950235;28;20050;-86
2022/04/30 10:06:53;;;;;;;4.97;4.35;;;;;;;11.85;63.35;101901.00;4949193;28;20405;-88
2022/04/30 10:09:38;;;;;;;5.40;3.45;;;;;;;11.71;63.09;101900.03;4937921;28;20046;-86
2022/04/30 10:12:32;;;;;;;5.85;3.50;;;;;;;11.58;62.94;101899.94;4952190;28;20131;-87
2022/04/30 10:15:22;;;;;;;3.72;3.08;;;;;;;11.60;62.90;101892.06;4952596;28;20050;-87
2022/04/30 10:17:56;;;;;;;5.32;3.72;;;;;;;11.62;62.37;101897.34;4993052;28;20042;-86
2022/04/30 10:20:34;;;;;;;4.38;3.30;;;;;;;11.67;61.87;101901.75;4955805;28;20049;-85
2022/04/30 10:23:03;;;;;;;5.15;3.40;;;;;;;11.73;61.52;101900.91;4937668;28;20133;-87
2022/04/30 10:25:38;;;;;;;5.82;4.55;;;;;;;11.77;62.10;101892.19;4955040;28;20054;-85
2022/04/30 10:28:21;;;;;;;5.68;3.30;;;;;;;11.84;61.50;101894.00;4969750;28;20039;-85
2022/04/30 10:31:09;;;;;;;6.35;5.32;;;;;;;11.90;61.15;101899.28;4973985;28;20114;-88
2022/04/30 10:33:54;;;;;;;6.10;3.63;;;;;;;11.95;61.44;101896.69;4953278;28;20055;-89
2022/04/30 10:36:22;;;;;;;5.90;4.03;;;;;;;12.02;60.83;101889.72;4968523;28;20055;-86
2022/04/30 10:39:02;;;;;;;5.47;4.03;;;;;;;11.91;60.68;101885.28;4938316;28;20153;-86
2022/04/30 10:41:45;;;;;;;8.07;4.38;;;;;;;11.88;61.03;101880.00;4968088;28;20055;-89
2022/04/30 10:44:13;;;;;;;6.25;3.70;;;;;;;11.95;60.79;101878.31;4969155;28;20061;-86
2022/04/30 10:46:44;;;;;;;5.90;4.43;;;;;;;12.07;60.97;101878.41;4922906;28;20134;-88
2022/04/30 10:49:11;;;;;;;9.93;4.22;;;;;;;12.24;60.52;101878.47;4961538;28;20046;-86
2022/04/30 10:54:30;;;;;;;11.68;5.38;;;;;;;12.42;59.39;101876.75;4976377;28;20074;-86
2022/04/30 10:57:09;;;;;;;12.10;5.78;;;;;;;12.36;59.23;101876.78;4981240;28;20145;-85
2022/04/30 10:59:36;;;;;;;6.15;4.47;;;;;;;12.30;59.89;101872.34;4964471;28;20078;-85
2022/04/30 11:02:03;;;;;;;11.90;7.40;;;;;;;12.32;59.73;101878.50;4952048;28;20047;-87
2022/04/30 11:04:33;;;;;;;6.95;4.28;;;;;;;12.28;60.12;101873.22;4979542;28;20652;-86
2022/04/30 11:07:06;;;;;;;8.52;5.80;;;;;;;12.28;60.18;101867.97;4947184;28;21139;-86
2022/04/30 11:09:53;;;;;;;6.25;4.97;;;;;;;12.23;60.78;101871.47;4978564;28;20053;-87
2022/04/30 11:12:45;;;;;;;9.45;6.20;;;;;;;12.24;61.06;101873.22;5004078;28;20074;-84
2022/04/30 11:15:16;;;;;;;7.55;4.72;;;;;;;12.44;60.61;101872.41;4958762;28;20056;-86
2022/04/30 11:17:48;;;;;;;22.75;9.30;;;;;;;12.66;59.70;101880.31;4982448;28;20043;-88
2022/04/30 11:20:25;;;;;;;8.23;4.90;;;;;;;12.71;59.10;101868.06;4959360;28;20062;-85
2022/04/30 11:23:00;;;;;;;9.18;4.80;;;;;;;12.72;59.71;101875.09;4993837;28;20114;-85
2022/04/30 11:28:58;;;;;;;21.05;9.38;;;;;;;12.79;59.15;101860.19;4985881;28;20201;-87
2022/04/30 11:31:27;;;;;;;7.95;4.88;;;;;;;12.79;59.04;101858.47;4977551;28;20050;-87
2022/04/30 11:33:56;;;;;;;10.70;4.95;;;;;;;12.84;59.54;101856.72;4971717;28;20084;-89
2022/04/30 11:36:24;;;;;;;11.40;5.47;;;;;;;12.90;59.06;101847.97;4990194;28;20046;-87
2022/04/30 11:38:55;;;;;;;5.57;4.05;;;;;;;12.97;58.78;101854.09;4954080;28;20049;-86
2022/04/30 11:41:25;;;;;;;5.72;3.90;;;;;;;13.03;58.48;101851.47;4987481;28;20058;-87
2022/04/30 11:43:59;;;;;;;5.70;4.50;;;;;;;13.15;58.19;101850.59;4975722;28;20113;-88
2022/04/30 11:46:26;;;;;;;;;;;;;;;13.10;57.31;101844.44;4971805;28;20077;-88
2022/04/30 11:48:53;;;;;;;6.80;5.30;;;;;;;13.10;57.70;101852.34;4971804;28;19932;-87
2022/04/30 11:51:20;;;;;;;16.50;6.63;;;;;;;13.04;57.75;101846.22;4967169;28;20046;-88
2022/04/30 11:59:41;;;;;;;22.73;9.07;;;;;;;13.32;55.44;101843.53;4977560;28;20160;-87
2022/04/30 12:02:29;;;;;;;14.10;6.10;;;;;;;13.48;55.18;101830.41;4998157;28;20724;-87
2022/04/30 12:16:58;;;;;;;5.22;3.40;;;;;;;14.76;51.16;101816.66;4979567;28;20121;-87
2022/04/30 12:25:17;;;;;;;5.45;3.60;;;;;;;16.56;46.18;101815.53;4990311;28;20718;-88
2022/04/30 12:27:56;;;;;;;6.28;3.95;;;;;;;16.20;47.24;101813.41;4985220;28;20494;-84
2022/04/30 12:31:01;;;;;;;13.13;4.28;;;;;;;15.87;48.22;101815.56;4989990;28;20116;-88
2022/04/30 12:36:33;;;;;;;5.13;2.80;;;;;;;14.78;48.24;101806.97;4987822;28;20046;-88
2022/04/30 12:39:00;;;;;;;5.80;3.40;;;;;;;14.42;49.74;101803.69;4983579;28;20026;-84
2022/04/30 12:41:29;;;;;;;3.78;2.97;;;;;;;14.36;50.07;101801.09;4991933;28;20038;-87
2022/04/30 12:43:56;;;;;;;6.20;3.13;;;;;;;14.37;50.36;101803.72;4996989;28;20038;-87
2022/04/30 12:46:24;;;;;;;4.55;2.97;;;;;;;14.35;49.47;101794.97;4984307;28;20054;-86
2022/04/30 12:48:52;;;;;;;3.20;2.90;;;;;;;14.32;49.72;101796.75;4981795;28;20045;-85
2022/04/30 12:51:20;;;;;;;3.75;2.53;;;;;;;14.36;49.90;101798.47;4961243;28;20145;-84
2022/04/30 12:53:48;;;;;;;6.07;3.38;;;;;;;14.46;49.74;101799.28;4977409;28;20050;-86
2022/04/30 12:56:17;;;;;;;6.10;3.10;;;;;;;14.55;49.62;101786.91;4975152;28;20049;-87
2022/04/30 12:58:44;;;;;;;5.60;3.92;;;;;;;14.54;49.25;101785.16;4978141;28;20402;-87
2022/04/30 13:01:11;;;;;;;6.30;4.05;;;;;;;14.51;49.57;101784.28;5012079;28;20096;-87
2022/04/30 13:03:40;;;;;;;4.72;3.15;;;;;;;14.53;49.74;101787.81;5009486;28;20050;-87
2022/04/30 13:06:11;;;;;;;5.78;3.22;;;;;;;14.49;49.87;101789.59;4994447;28;20060;-87
2022/04/30 13:17:04;;;;;;;4.35;3.38;;;;;;;14.73;49.03;101777.13;5001344;28;20046;-87
2022/04/30 13:19:41;;;;;;;5.35;3.45;;;;;;;14.93;49.09;101766.44;4988101;28;20050;-86
2022/04/30 13:22:12;;;;;;;6.05;3.30;;;;;;;15.02;48.58;101765.47;4985763;28;20057;-87
2022/04/30 13:24:41;;;;;;;2.97;2.78;;;;;;;14.90;48.53;101763.84;4998456;28;20042;-88
2022/04/30 13:27:08;;;;;;;3.20;3.00;;;;;;;14.83;48.78;101764.75;4986040;28;20133;-88
2022/04/30 13:29:36;;;;;;;4.80;2.45;;;;;;;14.68;48.70;101765.78;4971801;28;20038;-88
2022/04/30 13:32:04;;;;;;;2.45;2.13;;;;;;;14.62;48.77;101757.88;4984885;28;20051;-88
2022/04/30 13:34:34;;;;;;;5.55;3.40;;;;;;;14.55;48.73;101755.28;4961745;28;20061;-86
2022/04/30 13:45:16;;;;;;;2.88;2.60;;;;;;;14.25;49.65;101756.41;4978680;28;20119;-89
2022/04/30 13:47:46;;;;;;;3.72;2.35;;;;;;;14.21;49.17;101762.56;4989127;28;20072;-87
2022/04/30 13:50:17;;;;;;;3.42;2.58;;;;;;;14.06;49.01;101750.34;4973563;28;20053;-89
2022/04/30 13:52:45;;;;;;;3.95;2.75;;;;;;;13.96;49.25;101746.03;4996557;28;20057;-87
2022/04/30 13:55:13;;;;;;;4.80;2.72;;;;;;;13.91;49.05;101746.06;4989917;28;20108;-87
2022/04/30 13:57:50;;;;;;;6.10;2.92;;;;;;;13.82;49.41;101749.63;4990389;28;20050;-87
2022/04/30 14:00:42;;;;;;;3.72;2.58;;;;;;;13.81;49.48;101752.25;4994932;28;20053;-86
2022/04/30 14:03:08;;;;;;;4.18;2.22;;;;;;;13.82;49.32;101749.63;4993295;28;20034;-87
2022/04/30 14:05:36;;;;;;;5.20;2.80;;;;;;;13.77;49.16;101740.00;4977015;28;20077;-83
2022/04/30 14:08:06;;;;;;;2.88;2.60;;;;;;;13.69;49.23;101740.91;4983326;28;20038;-85
2022/04/30 14:10:33;;;;;;;5.10;2.88;;;;;;;13.66;49.76;101740.03;4979470;28;20041;-86
2022/04/30 14:14:55;;;;;;;8.77;3.40;;;;;;;13.65;49.48;101738.28;4982246;28;20026;-84
2022/04/30 14:15:53;;;;;;;3.25;2.58;;;;;;;13.65;49.64;101744.44;4989367;28;20038;-84
2022/04/30 14:18:24;;;;;;;3.15;2.58;;;;;;;13.65;49.01;101743.53;4966559;28;20046;-86
2022/04/30 14:20:54;;;;;;;4.70;3.03;;;;;;;13.54;49.17;101741.81;4990284;28;20045;-88
2022/04/30 14:23:25;;;;;;;3.20;2.10;;;;;;;13.59;49.24;101739.19;5002572;28;20050;-87
2022/04/30 14:25:52;;;;;;;3.67;2.85;;;;;;;13.73;48.79;101736.50;4991807;28;20054;-86
2022/04/30 14:28:22;;;;;;;3.70;2.58;;;;;;;13.78;48.49;101732.09;5005908;28;20045;-89
2022/04/30 14:30:49;;;;;;;3.20;2.25;;;;;;;13.84;48.44;101724.16;4983810;28;20133;-86
2022/04/30 14:33:17;;;;;;;2.53;2.33;;;;;;;13.97;47.83;101727.59;4980119;28;20061;-87
2022/04/30 14:35:48;;;;;;;5.68;3.35;;;;;;;14.08;47.75;101722.28;4996194;28;20104;-88
2022/04/30 14:38:16;;;;;;;2.47;2.28;;;;;;;14.16;47.58;101724.88;5001687;28;20049;-85
2022/04/30 14:43:24;;;;;;;8.05;2.25;;;;;;;14.28;47.37;101727.41;4987556;28;20054;-86
2022/04/30 14:45:57;;;;;;;4.72;2.90;;;;;;;14.38;46.92;101725.59;4995200;28;20479;-89
2022/04/30 14:51:06;;;;;;;2.65;2.45;;;;;;;14.44;46.59;101722.00;4990207;28;20145;-86
2022/04/30 14:53:38;;;;;;;;;;;;;;;14.49;45.73;101726.34;4999739;28;20062;-85
2022/04/30 14:56:05;;;;;;;2.47;2.03;;;;;;;14.57;46.34;101721.03;4992532;28;19929;-88
2022/04/30 14:58:39;;;;;;;5.45;2.90;;;;;;;14.70;46.20;101716.56;4991988;28;20062;-87
2022/04/30 15:03:49;;;;;;;3.15;2.67;;;;;;;14.95;45.26;101718.94;4994163;28;20791;-87
2022/04/30 15:06:23;;;;;;;3.15;2.63;;;;;;;14.78;45.48;101708.56;4987589;28;20050;-88